Time;durP1;ratioP1;P1;durP2;ratioP2;P2;SDS_P1;SDS_P2;PMS_P1;PMS_P2;Temp;Humidity;BMP_temperature;BMP_pressure;BME280_temperature;BME280_humidity;BME280_pressure;Samples;Min_cycle;Max_cycle;Signal;HPM_P1;HPM_P2
2023/04/22 00:00:23;;;;;;;15.63;10.23;;;9.60;99.90;;;;;;5039790;28;20071;-68
2023/04/22 00:02:48;;;;;;;17.48;10.88;;;9.50;99.90;;;;;;5044934;28;20040;-68
2023/04/22 00:05:14;;;;;;;14.57;10.00;;;9.40;99.90;;;;;;5046779;28;20036;-68
2023/04/22 00:07:41;;;;;;;18.02;10.85;;;9.40;99.90;;;;;;5043154;28;20037;-68
2023/04/22 00:10:08;;;;;;;17.17;10.52;;;9.30;99.90;;;;;;5042056;28;20131;-68
2023/04/22 00:12:34;;;;;;;16.83;10.60;;;9.20;99.90;;;;;;5044884;28;20041;-69
2023/04/22 00:15:00;;;;;;;19.08;10.85;;;9.10;99.90;;;;;;5044819;28;20040;-69
2023/04/22 00:17:25;;;;;;;17.23;10.90;;;9.00;99.90;;;;;;5062346;28;20080;-69
2023/04/22 00:19:51;;;;;;;19.02;10.82;;;9.00;99.90;;;;;;5044214;28;20120;-69
2023/04/22 00:22:17;;;;;;;20.08;12.50;;;9.00;99.90;;;;;;5043548;28;20036;-69
2023/04/22 00:24:43;;;;;;;25.05;13.50;;;9.00;99.90;;;;;;5045604;28;20340;-69
2023/04/22 00:27:08;;;;;;;21.55;13.43;;;9.00;99.90;;;;;;5042586;28;20036;-68
2023/04/22 00:29:34;;;;;;;20.52;11.93;;;9.10;99.90;;;;;;5043893;28;20083;-69
2023/04/22 00:31:59;;;;;;;20.55;11.73;;;9.10;99.90;;;;;;5043217;28;20032;-68
2023/04/22 00:34:25;;;;;;;18.15;11.20;;;9.00;99.90;;;;;;5046085;28;20033;-68
2023/04/22 00:36:51;;;;;;;23.73;14.32;;;8.90;99.90;;;;;;5045206;28;20052;-68
2023/04/22 00:39:16;;;;;;;22.23;13.60;;;8.80;99.90;;;;;;5042048;28;20041;-68
2023/04/22 00:41:42;;;;;;;19.25;12.20;;;8.80;99.90;;;;;;5045532;28;20044;-68
2023/04/22 00:44:12;;;;;;;23.52;14.15;;;8.70;99.90;;;;;;5044655;28;20048;-68
2023/04/22 00:46:38;;;;;;;22.52;14.77;;;8.70;99.90;;;;;;5045552;28;20111;-68
2023/04/22 00:49:05;;;;;;;31.70;17.02;;;8.80;99.90;;;;;;5043053;28;20403;-68
2023/04/22 00:51:31;;;;;;;26.48;15.63;;;8.70;99.90;;;;;;5045367;28;20040;-68
2023/04/22 00:53:57;;;;;;;28.95;14.70;;;8.70;99.90;;;;;;5044872;28;20029;-68
2023/04/22 00:56:26;;;;;;;93.18;15.32;;;8.70;99.90;;;;;;5045288;28;20494;-68
2023/04/22 00:58:53;;;;;;;176.55;15.73;;;8.70;99.90;;;;;;5041025;28;20044;-70
2023/04/22 01:01:18;;;;;;;266.40;19.63;;;8.70;99.90;;;;;;5044743;28;20456;-68
2023/04/22 01:03:46;;;;;;;72.15;14.13;;;8.60;99.90;;;;;;5058852;28;20682;-69
2023/04/22 01:06:12;;;;;;;67.38;16.42;;;8.50;99.90;;;;;;5043278;28;20044;-69
2023/04/22 01:08:39;;;;;;;73.82;15.77;;;8.50;99.90;;;;;;5057801;28;20506;-68
2023/04/22 01:11:05;;;;;;;31.60;16.13;;;8.30;99.90;;;;;;5043120;28;20060;-68
2023/04/22 01:13:31;;;;;;;28.75;15.98;;;8.30;99.90;;;;;;5044765;28;20095;-68
2023/04/22 01:15:59;;;;;;;28.13;16.48;;;8.30;99.90;;;;;;5043517;28;20124;-67
2023/04/22 01:18:25;;;;;;;31.83;17.25;;;8.30;99.90;;;;;;5043683;28;20056;-68
2023/04/22 01:20:51;;;;;;;30.02;15.38;;;8.30;99.90;;;;;;5045027;28;20049;-68
2023/04/22 01:23:21;;;;;;;28.20;16.65;;;8.30;99.90;;;;;;5043035;28;20044;-68
2023/04/22 01:25:47;;;;;;;31.17;17.77;;;8.20;99.90;;;;;;5042447;28;20025;-68
2023/04/22 01:28:13;;;;;;;29.85;17.45;;;8.20;99.90;;;;;;5044105;28;20036;-68
2023/04/22 01:30:39;;;;;;;32.95;19.35;;;8.20;99.90;;;;;;5043268;28;20384;-68
2023/04/22 01:33:05;;;;;;;28.42;17.02;;;8.20;99.90;;;;;;5043147;28;20049;-68
2023/04/22 01:35:35;;;;;;;24.65;15.15;;;8.20;99.90;;;;;;5063088;28;20051;-67
2023/04/22 01:38:02;;;;;;;77.53;17.08;;;8.20;99.90;;;;;;5042787;28;20041;-67
2023/04/22 01:40:33;;;;;;;33.75;18.30;;;8.00;99.90;;;;;;5043435;28;20045;-68
2023/04/22 01:42:59;;;;;;;28.30;17.00;;;8.00;99.90;;;;;;5044592;28;20103;-67
2023/04/22 01:45:25;;;;;;;30.08;17.08;;;8.00;99.90;;;;;;5044834;28;20049;-67
2023/04/22 01:47:51;;;;;;;29.08;17.17;;;8.00;99.90;;;;;;5043612;28;20644;-68
2023/04/22 01:50:16;;;;;;;29.50;17.83;;;7.90;99.90;;;;;;5054747;28;20215;-69
2023/04/22 01:52:42;;;;;;;29.50;17.15;;;7.80;99.90;;;;;;5041292;28;20045;-68
2023/04/22 01:55:08;;;;;;;30.83;17.55;;;7.90;99.90;;;;;;5042142;28;20037;-69
2023/04/22 01:57:34;;;;;;;29.73;17.77;;;7.90;99.90;;;;;;5043696;28;20506;-69
2023/04/22 01:59:59;;;;;;;28.20;16.33;;;7.90;99.90;;;;;;5044771;28;20041;-68
2023/04/22 02:02:25;;;;;;;24.42;16.10;;;8.00;99.90;;;;;;5041666;28;20041;-68
2023/04/22 02:04:51;;;;;;;24.85;15.55;;;7.80;99.90;;;;;;5039607;28;20045;-68
2023/04/22 02:07:16;;;;;;;24.75;15.38;;;7.90;99.90;;;;;;5041449;28;20471;-68
2023/04/22 02:09:42;;;;;;;23.95;15.40;;;7.80;99.90;;;;;;5041551;28;20061;-68
2023/04/22 02:12:07;;;;;;;29.60;16.65;;;7.80;99.90;;;;;;5043967;28;20041;-68
2023/04/22 02:14:33;;;;;;;30.98;17.55;;;7.80;99.90;;;;;;5043812;28;20037;-68
2023/04/22 02:17:01;;;;;;;30.63;17.42;;;7.80;99.90;;;;;;5059093;28;20033;-68
2023/04/22 02:19:27;;;;;;;29.73;17.35;;;7.80;99.90;;;;;;5040243;28;20073;-68
2023/04/22 02:21:53;;;;;;;27.35;16.20;;;7.90;99.90;;;;;;5043705;28;20106;-68
2023/04/22 02:24:18;;;;;;;29.58;16.42;;;7.80;99.90;;;;;;5043242;28;20512;-68
2023/04/22 02:26:44;;;;;;;28.83;16.67;;;7.80;99.90;;;;;;5042729;28;20048;-68
2023/04/22 02:29:10;;;;;;;26.75;16.27;;;7.80;99.90;;;;;;5038321;28;20053;-68
2023/04/22 02:31:36;;;;;;;29.10;16.33;;;7.70;99.90;;;;;;5045395;28;20044;-67
2023/04/22 02:34:01;;;;;;;28.83;16.05;;;7.70;99.90;;;;;;5041857;28;20036;-68
2023/04/22 02:36:27;;;;;;;27.20;16.70;;;7.70;99.90;;;;;;5059203;28;20123;-67
2023/04/22 02:38:53;;;;;;;26.52;16.65;;;7.70;99.90;;;;;;5042043;28;20052;-68
2023/04/22 02:41:19;;;;;;;27.55;16.23;;;7.60;99.90;;;;;;5041679;28;20045;-68
2023/04/22 02:43:45;;;;;;;30.85;17.48;;;7.60;99.90;;;;;;5043500;28;20048;-68
2023/04/22 02:46:12;;;;;;;25.45;15.25;;;7.60;99.90;;;;;;5044747;28;20045;-67
2023/04/22 02:48:38;;;;;;;32.45;17.63;;;7.60;99.90;;;;;;5045734;28;20080;-68
2023/04/22 02:51:05;;;;;;;32.97;16.75;;;7.50;99.90;;;;;;5038787;28;20173;-67
2023/04/22 02:53:30;;;;;;;29.75;16.50;;;7.50;99.90;;;;;;5040629;28;20483;-68
2023/04/22 02:55:57;;;;;;;25.65;13.93;;;7.50;99.90;;;;;;5042469;28;20116;-68
2023/04/22 02:58:23;;;;;;;19.90;12.48;;;7.50;99.90;;;;;;5043410;28;20055;-68
2023/04/22 03:00:48;;;;;;;21.05;13.07;;;7.40;99.90;;;;;;5040833;28;20415;-68
2023/04/22 03:03:14;;;;;;;19.85;11.60;;;7.40;99.90;;;;;;5026081;28;20041;-67
2023/04/22 03:05:39;;;;;;;14.80;9.43;;;7.40;99.90;;;;;;5044635;28;20033;-67
2023/04/22 03:08:05;;;;;;;16.00;10.25;;;7.40;99.90;;;;;;5042033;28;20120;-67
2023/04/22 03:10:31;;;;;;;16.17;10.40;;;7.40;99.90;;;;;;5041436;28;20080;-67
2023/04/22 03:12:57;;;;;;;19.83;12.00;;;7.40;99.90;;;;;;5042576;28;20041;-67
2023/04/22 03:15:22;;;;;;;20.50;12.77;;;7.40;99.90;;;;;;5040818;28;20472;-67
2023/04/22 03:17:48;;;;;;;21.80;12.68;;;7.40;99.90;;;;;;5059491;28;20434;-67
2023/04/22 03:20:14;;;;;;;16.52;10.85;;;7.30;99.90;;;;;;5042245;28;20833;-67
2023/04/22 03:22:40;;;;;;;17.48;11.52;;;7.30;99.90;;;;;;5043646;28;20040;-67
2023/04/22 03:25:05;;;;;;;19.30;10.88;;;7.20;99.90;;;;;;5037857;28;20037;-67
2023/04/22 03:27:31;;;;;;;17.27;11.15;;;7.20;99.90;;;;;;5041582;28;20444;-67
2023/04/22 03:29:57;;;;;;;14.57;9.65;;;7.20;99.90;;;;;;5039240;28;20055;-67
2023/04/22 03:32:23;;;;;;;19.80;9.55;;;7.20;99.90;;;;;;5043677;28;20041;-67
2023/04/22 03:34:48;;;;;;;14.35;8.45;;;7.20;99.90;;;;;;5041790;28;20033;-67
2023/04/22 03:37:14;;;;;;;12.48;8.48;;;7.20;99.90;;;;;;5026851;28;20395;-67
2023/04/22 03:39:40;;;;;;;15.50;9.45;;;7.20;99.90;;;;;;5041153;28;20048;-67
2023/04/22 03:42:05;;;;;;;17.27;10.05;;;7.20;99.90;;;;;;5040738;28;20051;-67
2023/04/22 03:44:31;;;;;;;13.45;9.20;;;7.00;99.90;;;;;;5039139;28;20053;-67
2023/04/22 03:46:56;;;;;;;119.97;13.48;;;7.10;99.90;;;;;;5042271;28;20033;-67
2023/04/22 03:49:22;;;;;;;285.35;14.73;;;7.00;99.90;;;;;;5041319;28;20076;-70
2023/04/22 03:51:47;;;;;;;32.65;8.50;;;6.90;99.90;;;;;;5041968;28;20502;-69
2023/04/22 03:54:13;;;;;;;20.23;10.30;;;6.80;99.90;;;;;;5041655;28;20664;-68
2023/04/22 03:56:38;;;;;;;21.75;12.25;;;6.70;99.90;;;;;;5041462;28;20565;-68
2023/04/22 03:59:04;;;;;;;27.25;14.23;;;6.70;99.90;;;;;;5040201;28;20076;-68
2023/04/22 04:01:29;;;;;;;23.73;12.80;;;6.90;99.90;;;;;;5037173;28;20049;-68
2023/04/22 04:03:55;;;;;;;23.08;13.00;;;6.90;99.90;;;;;;5042400;28;20413;-68
2023/04/22 04:06:21;;;;;;;51.17;15.00;;;6.80;99.90;;;;;;5039771;28;20057;-66
2023/04/22 04:08:46;;;;;;;670.30;33.20;;;6.70;99.90;;;;;;5042008;28;20064;-67
2023/04/22 04:11:12;;;;;;;577.08;30.70;;;6.40;99.90;;;;;;5040975;28;20056;-66
2023/04/22 04:13:37;;;;;;;222.85;13.38;;;5.90;99.90;;;;;;5057472;28;20040;-66
2023/04/22 04:16:03;;;;;;;12.02;7.40;;;5.60;99.90;;;;;;5041312;28;20029;-66
2023/04/22 04:18:29;;;;;;;12.45;7.97;;;5.50;99.90;;;;;;5040992;28;20065;-66
2023/04/22 04:20:55;;;;;;;13.35;8.10;;;5.60;99.90;;;;;;5038231;28;20097;-66
2023/04/22 04:23:20;;;;;;;13.90;9.10;;;5.60;99.90;;;;;;5040833;28;20040;-66
2023/04/22 04:25:46;;;;;;;12.95;8.52;;;5.60;99.90;;;;;;5043504;28;20037;-66
2023/04/22 04:28:13;;;;;;;14.85;9.15;;;5.70;99.90;;;;;;5044125;28;20044;-66
2023/04/22 04:30:40;;;;;;;14.02;8.40;;;5.80;99.90;;;;;;5042394;28;20041;-67
2023/04/22 04:33:06;;;;;;;14.13;8.93;;;5.80;99.90;;;;;;5041098;28;20044;-67
2023/04/22 04:35:36;;;;;;;229.45;16.10;;;5.80;99.90;;;;;;5043257;28;20033;-67
2023/04/22 04:38:04;;;;;;;48.05;12.25;;;5.90;99.90;;;;;;5044204;28;20520;-67
2023/04/22 04:40:30;;;;;;;33.50;7.93;;;5.90;99.90;;;;;;5044493;28;20051;-67
2023/04/22 04:43:01;;;;;;;113.40;11.40;;;5.80;99.90;;;;;;5040594;28;20041;-67
2023/04/22 04:45:27;;;;;;;19.15;9.10;;;5.80;99.90;;;;;;5056303;28;20045;-67
2023/04/22 04:47:53;;;;;;;49.78;9.70;;;5.80;99.90;;;;;;5036433;28;20052;-67
2023/04/22 04:50:19;;;;;;;23.88;7.90;;;5.80;99.90;;;;;;5039603;28;20299;-66
2023/04/22 04:52:47;;;;;;;15.52;9.05;;;5.80;99.90;;;;;;5043110;28;20029;-67
2023/04/22 04:55:14;;;;;;;15.55;9.48;;;5.80;99.90;;;;;;5024102;28;20486;-67
2023/04/22 04:57:40;;;;;;;22.77;12.00;;;5.80;99.90;;;;;;5039384;28;20028;-67
2023/04/22 05:00:07;;;;;;;499.55;27.83;;;5.80;99.90;;;;;;5038945;28;20590;-67
2023/04/22 05:02:32;;;;;;;221.02;14.93;;;5.80;99.90;;;;;;5040959;28;20388;-67
2023/04/22 05:04:58;;;;;;;270.05;15.85;;;5.90;99.90;;;;;;5056959;28;20115;-67
2023/04/22 05:07:23;;;;;;;38.20;14.50;;;5.80;99.90;;;;;;5041144;28;20064;-67
2023/04/22 05:09:49;;;;;;;24.25;13.20;;;5.90;99.90;;;;;;5041720;28;20132;-67
2023/04/22 05:12:14;;;;;;;23.45;12.93;;;5.90;99.90;;;;;;5042820;28;20570;-67
2023/04/22 05:14:40;;;;;;;32.30;17.75;;;6.00;99.90;;;;;;5043980;28;20484;-67
2023/04/22 05:17:06;;;;;;;30.75;16.45;;;6.00;99.90;;;;;;5039115;28;20041;-67
2023/04/22 05:19:32;;;;;;;29.35;16.75;;;6.20;99.90;;;;;;5039651;28;20049;-67
2023/04/22 05:21:58;;;;;;;24.92;14.38;;;6.30;99.90;;;;;;5042051;28;20399;-67
2023/04/22 05:24:24;;;;;;;32.85;17.40;;;6.30;99.90;;;;;;5042318;28;20037;-67
2023/04/22 05:26:49;;;;;;;40.97;20.08;;;6.50;99.90;;;;;;5042592;28;20059;-67
2023/04/22 05:29:15;;;;;;;36.28;18.90;;;6.50;99.90;;;;;;5059036;28;20043;-67
2023/04/22 05:31:40;;;;;;;34.92;18.48;;;6.70;99.90;;;;;;5042720;28;20032;-67
2023/04/22 05:34:06;;;;;;;38.25;19.80;;;6.80;99.90;;;;;;5043051;28;20072;-67
2023/04/22 05:36:31;;;;;;;41.25;20.88;;;6.90;99.90;;;;;;5041745;28;20041;-67
2023/04/22 05:38:57;;;;;;;48.15;23.30;;;7.00;99.90;;;;;;5056933;28;20065;-67
2023/04/22 05:41:22;;;;;;;59.10;26.45;;;7.00;99.90;;;;;;5056366;28;20049;-67
2023/04/22 05:43:48;;;;;;;51.97;24.25;;;7.10;99.90;;;;;;5045171;28;20044;-67
2023/04/22 05:46:14;;;;;;;61.45;26.15;;;7.30;99.90;;;;;;5044931;28;20191;-67
2023/04/22 05:48:39;;;;;;;42.55;22.85;;;7.40;99.90;;;;;;5056164;28;20488;-67
2023/04/22 05:51:05;;;;;;;49.40;24.55;;;7.50;99.90;;;;;;5042593;28;20123;-67
2023/04/22 05:53:30;;;;;;;46.47;24.33;;;7.70;99.90;;;;;;5059431;28;20033;-67
2023/04/22 05:55:56;;;;;;;45.58;23.25;;;7.70;99.90;;;;;;5043944;28;20032;-67
2023/04/22 05:58:21;;;;;;;47.95;23.67;;;7.80;99.90;;;;;;5046215;28;20120;-67
2023/04/22 06:00:47;;;;;;;49.65;25.98;;;8.00;99.90;;;;;;5047917;28;20041;-67
2023/04/22 06:03:13;;;;;;;58.33;28.30;;;8.10;99.90;;;;;;5043449;28;20048;-67
2023/04/22 06:05:38;;;;;;;57.30;28.70;;;8.10;99.90;;;;;;5063608;28;20392;-67
2023/04/22 06:08:04;;;;;;;49.53;27.02;;;8.30;99.90;;;;;;5045251;28;20037;-67
2023/04/22 06:10:29;;;;;;;58.53;29.13;;;8.30;99.90;;;;;;5046223;28;20068;-67
2023/04/22 06:12:55;;;;;;;61.70;30.40;;;8.50;99.90;;;;;;5046619;28;20155;-67
2023/04/22 06:15:20;;;;;;;69.20;31.45;;;8.70;99.90;;;;;;5046185;28;20132;-67
2023/04/22 06:17:47;;;;;;;54.45;28.27;;;8.80;99.90;;;;;;5048124;28;20033;-68
2023/04/22 06:20:13;;;;;;;66.68;31.17;;;8.90;99.90;;;;;;5044632;28;20047;-67
2023/04/22 06:22:39;;;;;;;52.67;28.35;;;9.00;99.90;;;;;;5044566;28;20494;-67
2023/04/22 06:25:05;;;;;;;65.28;30.48;;;9.20;99.90;;;;;;5062264;28;20033;-67
2023/04/22 06:27:30;;;;;;;55.72;28.65;;;9.20;99.90;;;;;;5045983;28;20450;-67
2023/04/22 06:29:56;;;;;;;61.85;30.25;;;9.30;99.90;;;;;;5045367;28;20123;-67
2023/04/22 06:32:21;;;;;;;60.38;29.20;;;9.50;99.90;;;;;;5061939;28;20115;-68
2023/04/22 06:34:47;;;;;;;59.63;29.38;;;9.60;99.90;;;;;;5046213;28;20132;-67
2023/04/22 06:37:12;;;;;;;63.10;30.88;;;9.70;99.90;;;;;;5061019;28;20041;-68
2023/04/22 06:39:38;;;;;;;68.60;31.85;;;9.70;99.90;;;;;;5044730;28;20044;-67
2023/04/22 06:42:04;;;;;;;57.58;29.52;;;10.00;99.90;;;;;;5045116;28;20053;-67
2023/04/22 06:44:30;;;;;;;67.95;32.08;;;10.00;99.90;;;;;;5044197;28;20048;-68
2023/04/22 06:46:56;;;;;;;58.67;29.15;;;10.10;99.90;;;;;;5045892;28;20095;-68
2023/04/22 06:49:22;;;;;;;60.00;31.25;;;10.10;99.90;;;;;;5044497;28;20127;-68
2023/04/22 06:51:47;;;;;;;64.97;32.17;;;10.20;99.90;;;;;;5044418;28;20060;-68
2023/04/22 06:54:13;;;;;;;59.40;31.35;;;10.40;99.90;;;;;;5044760;28;20040;-67
2023/04/22 06:56:38;;;;;;;69.00;32.10;;;10.40;99.90;;;;;;5045952;28;20041;-68
2023/04/22 06:59:06;;;;;;;65.00;32.13;;;10.60;99.90;;;;;;5043659;28;20502;-68
2023/04/22 07:01:32;;;;;;;69.65;32.65;;;10.60;99.90;;;;;;5046751;28;20048;-68
2023/04/22 07:03:57;;;;;;;69.55;33.13;;;10.70;99.90;;;;;;5046912;28;20087;-68
2023/04/22 07:06:23;;;;;;;77.03;34.72;;;10.80;99.90;;;;;;5045895;28;20090;-68
2023/04/22 07:08:48;;;;;;;72.65;34.10;;;10.80;99.90;;;;;;5041860;28;20049;-68
2023/04/22 07:11:14;;;;;;;69.88;33.75;;;11.00;99.90;;;;;;5044054;28;20056;-68
2023/04/22 07:13:40;;;;;;;64.50;32.47;;;11.10;99.90;;;;;;5062693;28;20037;-68
2023/04/22 07:16:05;;;;;;;69.63;32.35;;;11.10;99.90;;;;;;5043024;28;20523;-69
2023/04/22 07:18:31;;;;;;;76.22;35.17;;;11.10;99.90;;;;;;5044845;28;20045;-70
2023/04/22 07:20:56;;;;;;;69.40;33.75;;;11.20;99.90;;;;;;5041140;28;20132;-69
2023/04/22 07:23:22;;;;;;;76.88;33.30;;;11.30;99.90;;;;;;5045925;28;20086;-70
2023/04/22 07:25:48;;;;;;;74.72;34.55;;;11.50;99.90;;;;;;5044510;28;20036;-70
2023/04/22 07:28:13;;;;;;;84.35;36.53;;;11.50;99.90;;;;;;5046010;28;20045;-70
2023/04/22 07:30:39;;;;;;;76.93;36.28;;;11.60;99.90;;;;;;5027011;28;20041;-71
2023/04/22 07:33:05;;;;;;;84.68;37.65;;;11.70;99.90;;;;;;5046776;28;20048;-71
2023/04/22 07:35:30;;;;;;;85.45;38.60;;;11.80;99.90;;;;;;5045835;28;20065;-71
2023/04/22 07:37:56;;;;;;;85.13;38.83;;;11.80;99.90;;;;;;5049018;28;20078;-71
2023/04/22 07:40:21;;;;;;;85.97;38.58;;;12.00;99.90;;;;;;5047978;28;20041;-73
2023/04/22 07:42:47;;;;;;;85.38;38.75;;;12.10;99.90;;;;;;5048272;28;20049;-73
2023/04/22 07:45:13;;;;;;;78.68;36.97;;;12.20;99.90;;;;;;5046233;28;20045;-73
2023/04/22 07:47:38;;;;;;;89.70;37.50;;;12.40;99.90;;;;;;5046151;28;20132;-73
2023/04/22 07:50:04;;;;;;;79.72;37.05;;;12.50;99.90;;;;;;5043145;28;20071;-73
2023/04/22 07:52:30;;;;;;;83.30;37.03;;;12.70;99.90;;;;;;5042089;28;20121;-75
2023/04/22 07:54:56;;;;;;;82.28;37.58;;;12.90;99.90;;;;;;5043217;28;20123;-74
2023/04/22 07:57:22;;;;;;;83.63;37.17;;;13.00;99.90;;;;;;5044635;28;20041;-75
2023/04/22 07:59:48;;;;;;;79.82;36.47;;;13.10;99.90;;;;;;5044992;28;20399;-74
2023/04/22 08:02:14;;;;;;;76.18;34.53;;;13.20;99.90;;;;;;5025616;28;20049;-75
2023/04/22 08:04:39;;;;;;;77.40;34.83;;;13.20;99.90;;;;;;5058863;28;20396;-74
2023/04/22 08:07:05;;;;;;;74.43;34.40;;;13.40;99.90;;;;;;5041428;28;20430;-72
2023/04/22 08:09:30;;;;;;;73.38;33.85;;;13.50;99.90;;;;;;5042169;28;20041;-74
2023/04/22 08:11:57;;;;;;;70.90;33.22;;;13.60;99.90;;;;;;5042569;28;20041;-73
2023/04/22 08:14:22;;;;;;;71.72;33.13;;;13.80;99.90;;;;;;5042501;28;20091;-74
2023/04/22 08:16:50;;;;;;;69.25;32.08;;;13.80;99.90;;;;;;5041165;28;20395;-74
2023/04/22 08:19:16;;;;;;;67.07;31.17;;;13.90;99.90;;;;;;5041332;28;20068;-73
2023/04/22 08:21:41;;;;;;;64.47;31.30;;;14.00;99.90;;;;;;5039821;28;20075;-72
2023/04/22 08:24:07;;;;;;;58.35;30.42;;;14.10;99.90;;;;;;5043733;28;20387;-74
2023/04/22 08:26:33;;;;;;;61.17;29.15;;;14.20;99.90;;;;;;5043212;28;20587;-73
2023/04/22 08:28:59;;;;;;;53.70;28.27;;;14.30;99.90;;;;;;5058379;28;20052;-74
2023/04/22 08:31:25;;;;;;;54.47;28.00;;;14.40;99.90;;;;;;5041641;28;20037;-73
2023/04/22 08:33:50;;;;;;;53.60;27.77;;;14.50;99.90;;;;;;5048018;28;20541;-73
2023/04/22 08:36:16;;;;;;;53.10;28.05;;;14.60;99.90;;;;;;5045288;28;20041;-73
2023/04/22 08:38:42;;;;;;;48.42;26.98;;;14.70;99.90;;;;;;5044591;28;20069;-74
2023/04/22 08:41:08;;;;;;;51.28;26.65;;;14.90;99.90;;;;;;5063377;28;20499;-75
2023/04/22 08:43:34;;;;;;;49.00;27.92;;;15.10;99.90;;;;;;5048824;28;20387;-75
2023/04/22 08:46:01;;;;;;;43.25;24.85;;;15.20;99.90;;;;;;5048547;28;20080;-73
2023/04/22 08:48:26;;;;;;;45.50;25.00;;;15.40;99.90;;;;;;5063359;28;20049;-73
2023/04/22 08:50:52;;;;;;;44.70;24.45;;;15.50;99.90;;;;;;5041020;28;20112;-73
2023/04/22 08:53:19;;;;;;;43.40;24.20;;;15.60;99.90;;;;;;5058124;28;20448;-72
2023/04/22 08:55:46;;;;;;;41.78;23.63;;;15.60;99.90;;;;;;5040982;28;20495;-71
2023/04/22 08:58:12;;;;;;;37.33;21.73;;;15.50;99.90;;;;;;5041921;28;20444;-72
2023/04/22 09:00:41;;;;;;;35.97;22.23;;;15.50;99.90;;;;;;5042650;28;20247;-72
2023/04/22 09:03:07;;;;;;;36.85;21.73;;;15.50;99.90;;;;;;5042690;28;20048;-72
2023/04/22 09:05:33;;;;;;;36.05;22.15;;;15.60;99.90;;;;;;5058516;28;20041;-72
2023/04/22 09:07:58;;;;;;;35.35;20.50;;;15.70;99.90;;;;;;5044652;28;20036;-73
2023/04/22 09:10:24;;;;;;;30.58;19.92;;;15.80;99.90;;;;;;5041426;28;20049;-73
2023/04/22 09:12:51;;;;;;;30.92;19.27;;;16.00;99.90;;;;;;5059331;28;20432;-72
2023/04/22 09:15:16;;;;;;;29.73;18.60;;;16.10;99.90;;;;;;5039643;28;20378;-73
2023/04/22 09:17:42;;;;;;;28.95;18.88;;;16.20;99.90;;;;;;5036717;28;21908;-73
2023/04/22 09:20:08;;;;;;;25.02;17.40;;;16.30;99.90;;;;;;5039323;28;20407;-67
2023/04/22 09:22:42;;;;;;;26.35;17.90;;;16.30;99.90;;;;;;5061114;28;20052;-67
2023/04/22 09:25:23;;;;;;;30.63;18.00;;;16.30;99.90;;;;;;5056070;28;20063;-68
2023/04/22 09:27:57;;;;;;;28.58;17.15;;;16.30;99.90;;;;;;5040848;28;20095;-66
2023/04/22 09:30:31;;;;;;;25.20;15.80;;;16.40;99.90;;;;;;5055167;28;20068;-68
2023/04/22 09:32:59;;;;;;;24.73;16.23;;;16.50;99.90;;;;;;5055452;28;20044;-67
2023/04/22 09:35:32;;;;;;;22.90;15.90;;;16.70;99.90;;;;;;5054658;28;20046;-67
2023/04/22 09:38:02;;;;;;;22.42;16.48;;;16.90;99.90;;;;;;5038918;28;20037;-67
2023/04/22 09:40:29;;;;;;;27.02;17.45;;;17.10;99.90;;;;;;5054916;28;20044;-67
2023/04/22 09:42:57;;;;;;;24.80;17.20;;;17.20;99.90;;;;;;5045360;28;20075;-67
2023/04/22 09:45:32;;;;;;;24.42;16.15;;;17.20;99.90;;;;;;5038663;28;20102;-67
2023/04/22 09:48:11;;;;;;;22.75;16.48;;;17.20;99.90;;;;;;5053160;28;20114;-67
2023/04/22 09:50:38;;;;;;;23.50;15.82;;;17.30;99.90;;;;;;5042470;28;20529;-68
2023/04/22 09:53:06;;;;;;;27.40;16.20;;;17.40;99.90;;;;;;5044973;28;20037;-67
2023/04/22 09:55:36;;;;;;;25.63;16.33;;;17.60;99.90;;;;;;5045866;28;20119;-66
2023/04/22 09:58:07;;;;;;;23.67;16.52;;;17.70;99.90;;;;;;5044477;28;20068;-67
2023/04/22 10:00:36;;;;;;;23.60;16.13;;;17.80;99.90;;;;;;5044479;28;20045;-67
2023/04/22 10:03:03;;;;;;;24.52;16.75;;;17.70;99.90;;;;;;5043817;28;20480;-67
2023/04/22 10:05:29;;;;;;;21.15;15.52;;;17.90;99.90;;;;;;5045061;28;20033;-66
2023/04/22 10:07:55;;;;;;;21.58;15.73;;;17.90;99.90;;;;;;5042691;28;20044;-66
2023/04/22 10:10:21;;;;;;;22.88;15.93;;;17.90;99.90;;;;;;5040729;28;20045;-66
2023/04/22 10:12:47;;;;;;;20.30;15.07;;;18.00;99.90;;;;;;5037756;28;20044;-66
2023/04/22 10:15:13;;;;;;;22.40;15.93;;;18.20;99.90;;;;;;5040903;28;20084;-67
2023/04/22 10:17:40;;;;;;;20.00;15.23;;;18.30;99.90;;;;;;5036970;28;20136;-67
2023/04/22 10:20:14;;;;;;;19.70;14.48;;;18.50;99.90;;;;;;5041223;28;20029;-67
2023/04/22 10:22:44;;;;;;;21.95;14.45;;;18.60;99.90;;;;;;5036951;28;20059;-66
2023/04/22 10:25:24;;;;;;;23.88;13.73;;;18.60;99.90;;;;;;5040727;28;20044;-66
2023/04/22 10:28:09;;;;;;;21.73;14.52;;;18.60;99.90;;;;;;5039013;28;20064;-67
2023/04/22 10:30:37;;;;;;;20.52;13.45;;;18.60;99.90;;;;;;5041820;28;20058;-66
2023/04/22 10:33:26;;;;;;;17.02;12.75;;;18.80;99.90;;;;;;5041466;28;20124;-66
2023/04/22 10:36:13;;;;;;;15.80;12.05;;;18.80;99.90;;;;;;5040965;28;20048;-67
2023/04/22 10:38:41;;;;;;;15.95;12.13;;;18.90;99.90;;;;;;5042459;28;20040;-67
2023/04/22 10:41:12;;;;;;;17.60;12.52;;;19.00;99.90;;;;;;5041213;28;20120;-67
2023/04/22 10:43:41;;;;;;;17.15;12.05;;;19.20;99.90;;;;;;5046822;28;20691;-66
2023/04/22 10:46:06;;;;;;;17.13;11.80;;;19.20;99.90;;;;;;5023314;28;20095;-66
2023/04/22 10:48:49;;;;;;;16.58;11.77;;;19.30;99.90;;;;;;5043234;28;20041;-65
2023/04/22 10:51:37;;;;;;;18.17;12.00;;;19.30;99.90;;;;;;5042263;28;20060;-67
2023/04/22 10:54:03;;;;;;;16.60;12.70;;;19.30;99.90;;;;;;5043757;28;20048;-66
2023/04/22 10:56:29;;;;;;;18.17;13.18;;;19.40;99.90;;;;;;5043761;28;20041;-66
2023/04/22 10:58:57;;;;;;;16.13;12.73;;;19.40;99.90;;;;;;5039901;28;20106;-66
2023/04/22 11:01:27;;;;;;;17.73;12.82;;;19.40;99.90;;;;;;5043064;28;20051;-66
2023/04/22 11:03:52;;;;;;;17.65;13.63;;;19.40;99.90;;;;;;5042009;28;20037;-67
2023/04/22 11:06:21;;;;;;;19.17;13.00;;;19.40;99.90;;;;;;5038799;28;20041;-66
2023/04/22 11:09:08;;;;;;;17.45;12.70;;;19.60;99.90;;;;;;5039290;28;20041;-66
2023/04/22 11:11:33;;;;;;;17.48;12.95;;;19.70;99.90;;;;;;5043112;28;20049;-66
2023/04/22 11:13:59;;;;;;;15.10;12.48;;;19.70;99.90;;;;;;5058003;28;20041;-67
2023/04/22 11:16:25;;;;;;;20.23;13.88;;;19.80;99.90;;;;;;5042219;28;20076;-66
2023/04/22 11:18:51;;;;;;;18.02;14.38;;;19.90;99.90;;;;;;5042002;28;20045;-66
2023/04/22 11:21:18;;;;;;;18.52;14.65;;;19.90;99.90;;;;;;5043447;28;20290;-67
2023/04/22 11:23:51;;;;;;;17.98;14.02;;;19.90;99.90;;;;;;5054793;28;20083;-66
2023/04/22 11:26:18;;;;;;;19.25;14.75;;;19.90;99.90;;;;;;5039770;28;20396;-66
2023/04/22 11:28:47;;;;;;;20.88;14.00;;;19.90;99.90;;;;;;5041518;28;20033;-67
2023/04/22 11:31:14;;;;;;;17.40;13.55;;;20.00;99.90;;;;;;5041132;28;20514;-66
2023/04/22 11:33:40;;;;;;;23.63;14.32;;;20.00;99.90;;;;;;5044428;28;20048;-67
2023/04/22 11:36:10;;;;;;;19.77;14.02;;;20.10;99.90;;;;;;5061047;28;20411;-68
2023/04/22 11:38:36;;;;;;;19.88;13.63;;;20.10;99.90;;;;;;5046214;28;20045;-67
2023/04/22 11:41:03;;;;;;;18.42;13.82;;;20.00;99.90;;;;;;5060393;28;20068;-66
2023/04/22 11:43:29;;;;;;;18.52;13.25;;;20.00;99.90;;;;;;5045495;28;20071;-66
2023/04/22 11:45:56;;;;;;;18.83;13.45;;;19.90;99.90;;;;;;5040728;28;20420;-66
2023/04/22 11:48:21;;;;;;;15.95;12.35;;;19.90;99.90;;;;;;5043675;28;20048;-66
2023/04/22 11:50:47;;;;;;;16.92;12.98;;;19.90;99.90;;;;;;5044010;28;20419;-66
2023/04/22 11:53:22;;;;;;;20.25;13.98;;;19.80;99.90;;;;;;5058726;28;20040;-66
2023/04/22 11:55:50;;;;;;;15.88;12.48;;;19.80;99.90;;;;;;5048794;28;20033;-65
2023/04/22 11:58:17;;;;;;;16.80;12.68;;;19.90;99.90;;;;;;5050829;28;21229;-65
2023/04/22 12:00:46;;;;;;;21.83;13.27;;;20.00;99.90;;;;;;5049265;28;20170;-65
2023/04/22 12:03:17;;;;;;;17.63;13.07;;;20.20;99.90;;;;;;5051372;28;20553;-65
2023/04/22 12:05:46;;;;;;;17.60;12.75;;;20.30;99.90;;;;;;5031584;28;20040;-65
2023/04/22 12:08:13;;;;;;;19.05;13.00;;;20.50;99.90;;;;;;5051386;28;20514;-66
2023/04/22 12:10:41;;;;;;;19.02;13.23;;;20.80;99.90;;;;;;5049033;28;20325;-72
2023/04/22 12:13:07;;;;;;;18.52;13.43;;;21.10;99.90;;;;;;5051762;28;20041;-69
2023/04/22 12:15:37;;;;;;;16.88;13.60;;;21.40;99.90;;;;;;5060561;28;20029;-72
2023/04/22 12:18:03;;;;;;;15.82;12.63;;;21.50;99.90;;;;;;5048915;28;20029;-69
2023/04/22 12:20:33;;;;;;;16.48;12.23;;;21.30;99.90;;;;;;5049429;28;20045;-69
2023/04/22 12:22:58;;;;;;;17.70;12.88;;;21.40;99.90;;;;;;5050632;28;20051;-71
2023/04/22 12:25:24;;;;;;;15.80;11.88;;;21.30;99.90;;;;;;5052691;28;20036;-70
2023/04/22 12:27:49;;;;;;;14.43;11.13;;;21.20;99.90;;;;;;5047507;28;20144;-71
2023/04/22 12:30:15;;;;;;;15.68;11.85;;;21.10;99.90;;;;;;5048728;28;20567;-69